createdAt,value
2022-08-26T00:00:19.500Z,11.27
2022-08-26T00:02:47.408Z,10.95
2022-08-26T00:05:15.386Z,12.23
2022-08-26T00:07:43.734Z,12.43
2022-08-26T00:10:13.241Z,12.38
2022-08-26T00:12:41.716Z,11.95
2022-08-26T00:15:12.088Z,13.40
2022-08-26T00:17:40.483Z,12.70
2022-08-26T00:20:11.050Z,12.52
2022-08-26T00:22:39.796Z,12.40
2022-08-26T00:25:09.715Z,12.75
2022-08-26T00:27:38.226Z,12.50
2022-08-26T00:30:10.075Z,11.90
2022-08-26T00:32:38.691Z,12.30
2022-08-26T00:35:08.375Z,11.73
2022-08-26T00:37:36.464Z,12.48
2022-08-26T00:40:07.423Z,12.48
2022-08-26T00:42:35.436Z,13.15
2022-08-26T00:45:10.140Z,13.32
2022-08-26T00:48:01.219Z,12.25
2022-08-26T00:50:35.232Z,12.05
2022-08-26T00:53:06.217Z,12.93
2022-08-26T00:55:40.229Z,13.40
2022-08-26T00:58:09.641Z,12.75
2022-08-26T01:00:37.793Z,12.20
2022-08-26T01:03:11.523Z,12.60
2022-08-26T01:05:42.687Z,13.32
2022-08-26T01:08:10.748Z,13.40
2022-08-26T01:10:39.195Z,12.60
2022-08-26T01:13:13.735Z,12.55
2022-08-26T01:15:47.750Z,12.20
2022-08-26T01:18:16.456Z,11.80
2022-08-26T01:21:01.537Z,11.77
2022-08-26T01:23:34.881Z,12.48
2022-08-26T01:26:19.413Z,13.63
2022-08-26T01:28:50.726Z,12.82
2022-08-26T01:31:23.478Z,13.20
2022-08-26T01:34:14.959Z,12.45
2022-08-26T01:36:43.152Z,12.45
2022-08-26T01:39:19.324Z,12.07
2022-08-26T01:41:53.744Z,13.55
2022-08-26T01:44:26.572Z,12.48
2022-08-26T01:46:56.047Z,12.65
2022-08-26T01:49:26.152Z,12.75
2022-08-26T01:51:57.163Z,13.55
2022-08-26T01:54:26.540Z,13.48
2022-08-26T01:56:55.506Z,13.52
2022-08-26T01:59:25.922Z,11.75
2022-08-26T02:01:54.551Z,13.55
2022-08-26T02:04:36.324Z,13.07
2022-08-26T02:07:07.714Z,12.93
2022-08-26T02:09:41.261Z,12.07
2022-08-26T02:12:11.494Z,13.82
2022-08-26T02:14:45.269Z,12.60
2022-08-26T02:17:16.982Z,13.20
2022-08-26T02:19:50.788Z,13.77
2022-08-26T02:22:22.778Z,14.10
2022-08-26T02:25:02.372Z,12.73
2022-08-26T02:27:33.786Z,13.43
2022-08-26T02:32:34.555Z,15.88
2022-08-26T02:35:03.310Z,15.85
2022-08-26T02:37:32.904Z,16.52
2022-08-26T02:40:02.808Z,16.70
2022-08-26T02:42:31.130Z,16.02
2022-08-26T02:44:59.279Z,16.10
2022-08-26T02:47:29.252Z,16.65
2022-08-26T02:50:00.726Z,15.10
2022-08-26T02:52:28.742Z,15.10
2022-08-26T02:54:56.766Z,14.35
2022-08-26T02:57:24.721Z,15.60
2022-08-26T02:59:52.694Z,15.05
2022-08-26T03:02:20.711Z,16.30
2022-08-26T03:04:58.189Z,14.70
2022-08-26T03:07:33.020Z,15.30
2022-08-26T03:10:08.223Z,14.02
2022-08-26T03:12:37.341Z,15.00
2022-08-26T03:15:17.320Z,14.27
2022-08-26T03:17:50.392Z,15.57
2022-08-26T03:20:19.416Z,15.55
2022-08-26T03:22:47.783Z,14.45
2022-08-26T03:25:17.867Z,15.32
2022-08-26T03:27:46.088Z,14.73
2022-08-26T03:30:34.619Z,14.90
2022-08-26T03:33:03.465Z,14.63
2022-08-26T03:35:36.084Z,15.10
2022-08-26T03:38:08.200Z,14.75
2022-08-26T03:40:38.011Z,15.68
2022-08-26T03:43:09.721Z,14.15
2022-08-26T03:45:38.374Z,13.85
2022-08-26T03:48:07.087Z,13.30
2022-08-26T03:50:36.009Z,14.43
2022-08-26T03:53:04.888Z,14.18
2022-08-26T03:55:35.488Z,14.73
2022-08-26T03:58:06.459Z,15.18
2022-08-26T04:00:35.125Z,14.43
2022-08-26T04:03:04.325Z,14.63
2022-08-26T04:05:32.448Z,14.32
2022-08-26T04:08:00.860Z,14.82
2022-08-26T04:10:29.548Z,14.38
2022-08-26T04:12:59.398Z,14.43
2022-08-26T04:15:28.180Z,15.15
2022-08-26T04:17:57.395Z,15.75
2022-08-26T04:20:26.089Z,15.90
2022-08-26T04:22:54.096Z,14.55
2022-08-26T04:25:22.400Z,15.73
2022-08-26T04:27:52.267Z,16.42
2022-08-26T04:30:21.229Z,16.02
2022-08-26T04:32:50.176Z,18.85
2022-08-26T04:35:20.076Z,18.02
2022-08-26T04:37:51.529Z,18.88
2022-08-26T04:40:19.604Z,18.48
2022-08-26T04:42:47.878Z,17.58
2022-08-26T04:45:15.928Z,18.60
2022-08-26T04:47:45.448Z,18.50
2022-08-26T04:50:13.798Z,20.20
2022-08-26T04:52:43.325Z,17.33
2022-08-26T04:55:11.373Z,19.90
2022-08-26T04:57:39.339Z,17.10
2022-08-26T05:00:14.603Z,16.73
2022-08-26T05:02:43.165Z,17.77
2022-08-26T05:05:11.310Z,18.45
2022-08-26T05:07:39.309Z,18.95
2022-08-26T05:10:08.915Z,18.85
2022-08-26T05:12:36.963Z,17.90
2022-08-26T05:15:06.399Z,17.20
2022-08-26T05:17:34.492Z,17.67
2022-08-26T05:20:02.554Z,17.38
2022-08-26T05:22:32.121Z,16.88
2022-08-26T05:25:00.083Z,17.10
2022-08-26T05:27:28.088Z,16.40
2022-08-26T05:29:59.221Z,15.75
2022-08-26T05:32:27.208Z,15.88
2022-08-26T05:34:58.551Z,16.13
2022-08-26T05:37:26.615Z,16.38
2022-08-26T05:39:54.565Z,16.25
2022-08-26T05:42:22.580Z,16.88
2022-08-26T05:44:55.961Z,16.52
2022-08-26T05:47:25.254Z,16.70
2022-08-26T05:49:53.329Z,17.27
2022-08-26T05:52:21.448Z,18.95
2022-08-26T05:54:53.831Z,18.90
2022-08-26T05:57:23.097Z,18.77
2022-08-26T05:59:52.711Z,18.17
2022-08-26T06:02:20.699Z,18.13
2022-08-26T06:04:48.706Z,17.70
2022-08-26T06:07:18.488Z,16.13
2022-08-26T06:09:51.819Z,17.67
2022-08-26T06:12:20.156Z,16.35
2022-08-26T06:14:49.037Z,15.48
2022-08-26T06:17:25.114Z,15.98
2022-08-26T06:19:56.174Z,14.93
2022-08-26T06:22:43.032Z,15.55
2022-08-26T06:25:29.487Z,16.00
2022-08-26T06:27:57.655Z,15.40
2022-08-26T06:30:26.124Z,14.95
2022-08-26T06:32:54.152Z,15.27
2022-08-26T06:35:22.783Z,16.02
2022-08-26T06:37:51.972Z,15.07
2022-08-26T06:40:20.027Z,15.13
2022-08-26T06:42:48.041Z,15.13
2022-08-26T06:45:16.335Z,14.70
2022-08-26T06:47:44.911Z,15.07
2022-08-26T06:50:17.568Z,15.18
2022-08-26T06:52:46.218Z,14.57
2022-08-26T06:55:17.091Z,13.07
2022-08-26T06:57:48.621Z,13.10
2022-08-26T07:00:17.384Z,12.32
2022-08-26T07:02:48.327Z,11.95
2022-08-26T07:05:16.689Z,11.57
2022-08-26T07:07:44.640Z,10.70
2022-08-26T07:10:12.546Z,10.95
2022-08-26T07:12:40.507Z,12.35
2022-08-26T07:15:09.740Z,10.73
2022-08-26T07:17:37.643Z,10.98
2022-08-26T07:20:08.838Z,11.30
2022-08-26T07:22:38.187Z,11.10
2022-08-26T07:25:11.293Z,10.23
2022-08-26T07:27:40.146Z,10.35
2022-08-26T07:30:08.930Z,10.20
2022-08-26T07:32:38.586Z,12.13
2022-08-26T07:35:07.514Z,10.05
2022-08-26T07:37:39.365Z,10.57
2022-08-26T07:40:08.416Z,10.23
2022-08-26T07:42:37.499Z,10.32
2022-08-26T07:45:06.133Z,10.35
2022-08-26T07:47:34.510Z,10.60
2022-08-26T07:50:02.577Z,10.68
2022-08-26T07:52:31.750Z,9.77
2022-08-26T07:55:02.592Z,10.00
2022-08-26T07:57:31.475Z,10.20
2022-08-26T08:00:00.117Z,9.85
2022-08-26T08:02:30.412Z,9.68
2022-08-26T08:04:59.597Z,9.32
2022-08-26T08:07:38.640Z,9.88
2022-08-26T08:10:21.846Z,8.93
2022-08-26T08:12:57.300Z,9.40
2022-08-26T08:15:28.895Z,9.13
2022-08-26T08:18:00.609Z,9.68
2022-08-26T08:20:29.479Z,9.15
2022-08-26T08:22:57.923Z,9.50
2022-08-26T08:25:26.122Z,8.85
2022-08-26T08:27:54.053Z,9.02
2022-08-26T08:30:23.537Z,8.00
2022-08-26T08:32:52.410Z,8.85
2022-08-26T08:35:24.613Z,9.32
2022-08-26T08:37:55.821Z,9.15
2022-08-26T08:40:27.312Z,9.10
2022-08-26T08:43:10.847Z,8.98
2022-08-26T08:45:47.071Z,8.70
2022-08-26T08:48:27.967Z,8.93
2022-08-26T08:51:07.575Z,9.05
2022-08-26T08:53:44.643Z,8.52
2022-08-26T08:56:42.354Z,9.40
2022-08-26T08:59:38.336Z,9.52
2022-08-26T09:02:12.638Z,9.63
2022-08-26T09:04:54.318Z,8.98
2022-08-26T09:08:02.171Z,9.07
2022-08-26T09:10:45.558Z,9.02
2022-08-26T09:13:17.131Z,8.43
2022-08-26T09:16:21.228Z,9.80
2022-08-26T09:19:07.074Z,8.52
2022-08-26T09:21:35.307Z,8.73
2022-08-26T09:24:03.366Z,8.60
2022-08-26T09:26:44.900Z,8.82
2022-08-26T09:29:24.749Z,8.98
2022-08-26T09:31:54.635Z,10.13
2022-08-26T09:34:28.481Z,8.65
2022-08-26T09:37:33.240Z,9.25
2022-08-26T09:40:27.903Z,9.55
2022-08-26T09:43:22.867Z,9.30
2022-08-26T09:45:59.686Z,8.48
2022-08-26T09:48:30.208Z,9.13
2022-08-26T09:51:01.781Z,8.60
2022-08-26T09:53:37.676Z,8.18
2022-08-26T09:56:33.134Z,7.57
2022-08-26T09:59:10.946Z,7.80
2022-08-26T10:01:45.356Z,6.70
2022-08-26T10:04:13.621Z,6.53
2022-08-26T10:06:55.618Z,7.13
2022-08-26T10:09:25.107Z,7.82
2022-08-26T10:12:01.262Z,7.40
2022-08-26T10:14:52.965Z,7.25
2022-08-26T10:17:32.576Z,8.30
2022-08-26T10:20:26.820Z,7.55
2022-08-26T10:23:14.152Z,6.72
2022-08-26T10:25:49.765Z,7.20
2022-08-26T10:28:36.674Z,7.95
2022-08-26T10:31:23.253Z,7.47
2022-08-26T10:33:58.813Z,7.07
2022-08-26T10:39:44.269Z,7.05
2022-08-26T10:42:45.706Z,7.07
2022-08-26T10:45:18.769Z,6.70
2022-08-26T10:48:01.057Z,7.07
2022-08-26T10:50:35.488Z,6.88
2022-08-26T10:53:37.432Z,6.68
2022-08-26T10:56:25.979Z,6.35
2022-08-26T10:59:24.321Z,7.30
2022-08-26T11:02:39.104Z,6.78
2022-08-26T11:05:23.786Z,6.18
2022-08-26T11:07:57.235Z,6.57
2022-08-26T11:10:25.125Z,5.35
2022-08-26T11:12:59.083Z,6.32
2022-08-26T11:15:32.285Z,6.25
2022-08-26T11:18:04.190Z,6.13
2022-08-26T11:20:42.101Z,6.72
2022-08-26T11:23:25.282Z,5.97
2022-08-26T11:26:11.484Z,6.68
2022-08-26T11:28:50.401Z,6.80
2022-08-26T11:31:27.494Z,6.43
2022-08-26T11:34:01.514Z,5.95
2022-08-26T11:36:39.600Z,6.55
2022-08-26T11:39:20.563Z,6.75
2022-08-26T11:41:52.920Z,5.65
2022-08-26T11:44:49.318Z,5.78
2022-08-26T11:47:25.899Z,6.38
2022-08-26T11:50:12.116Z,6.20
2022-08-26T11:52:40.805Z,5.93
2022-08-26T11:55:12.763Z,5.88
2022-08-26T11:57:58.834Z,5.30
2022-08-26T12:00:35.488Z,7.78
2022-08-26T12:03:08.379Z,6.30
2022-08-26T12:05:39.640Z,5.72
2022-08-26T12:08:12.534Z,5.82
2022-08-26T12:10:40.861Z,6.03
2022-08-26T12:13:09.875Z,5.93
2022-08-26T12:15:38.462Z,5.35
2022-08-26T12:18:29.396Z,5.38
2022-08-26T12:21:13.358Z,5.72
2022-08-26T12:23:49.949Z,5.70
2022-08-26T12:26:31.935Z,5.68
2022-08-26T12:29:12.823Z,5.32
2022-08-26T12:31:49.150Z,5.55
2022-08-26T12:34:18.700Z,5.28
2022-08-26T12:39:39.417Z,5.38
2022-08-26T12:42:25.003Z,5.38
2022-08-26T12:45:02.226Z,5.15
2022-08-26T12:47:43.498Z,5.45
2022-08-26T12:50:18.962Z,4.82
2022-08-26T12:53:15.170Z,4.70
2022-08-26T12:55:50.491Z,4.88
2022-08-26T12:58:45.264Z,5.20
2022-08-26T13:01:13.231Z,5.10
2022-08-26T13:03:44.818Z,4.97
2022-08-26T13:06:24.329Z,4.65
2022-08-26T13:09:02.739Z,5.03
2022-08-26T13:11:36.406Z,4.50
2022-08-26T13:14:21.238Z,4.90
2022-08-26T13:16:53.065Z,5.65
2022-08-26T13:19:26.659Z,5.15
2022-08-26T13:21:57.404Z,5.13
2022-08-26T13:27:29.197Z,5.38
2022-08-26T13:29:58.834Z,5.00
2022-08-26T13:32:27.573Z,4.93
2022-08-26T13:34:57.468Z,5.03
2022-08-26T13:37:34.965Z,5.80
2022-08-26T13:40:08.655Z,5.68
2022-08-26T13:42:36.800Z,5.40
2022-08-26T13:45:17.475Z,5.40
2022-08-26T13:47:45.728Z,5.78
2022-08-26T13:50:13.649Z,7.35
2022-08-26T13:52:41.546Z,6.97
2022-08-26T13:55:10.219Z,5.47
2022-08-26T13:57:38.156Z,5.28
2022-08-26T14:00:07.183Z,6.07
2022-08-26T14:02:39.090Z,6.60
2022-08-26T14:05:07.715Z,6.88
2022-08-26T14:07:35.789Z,8.00
2022-08-26T14:10:13.228Z,9.70
2022-08-26T14:12:44.654Z,7.57
2022-08-26T14:15:13.638Z,6.88
2022-08-26T14:17:41.626Z,7.38
2022-08-26T14:20:15.027Z,7.07
2022-08-26T14:23:03.561Z,6.70
2022-08-26T14:25:34.674Z,5.45
2022-08-26T14:32:30.688Z,4.15
2022-08-26T14:34:58.742Z,5.57
2022-08-26T14:37:26.945Z,5.63
2022-08-26T14:39:57.227Z,6.28
2022-08-26T14:42:31.656Z,5.70
2022-08-26T14:45:02.775Z,6.13
2022-08-26T14:47:30.836Z,5.78
2022-08-26T14:49:58.791Z,5.57
2022-08-26T14:52:27.272Z,4.88
2022-08-26T14:54:55.419Z,5.28
2022-08-26T14:57:24.205Z,5.38
2022-08-26T14:59:52.165Z,5.95
2022-08-26T15:02:30.874Z,4.95
2022-08-26T15:05:02.490Z,6.40
2022-08-26T15:07:30.529Z,6.10
2022-08-26T15:09:58.493Z,6.97
2022-08-26T15:12:26.613Z,7.88
2022-08-26T15:14:54.975Z,8.38
2022-08-26T15:17:22.895Z,8.40
2022-08-26T15:19:50.921Z,8.30
2022-08-26T15:22:19.002Z,8.40
2022-08-26T15:24:46.938Z,6.75
2022-08-26T15:27:23.119Z,7.00
2022-08-26T15:29:51.314Z,6.25
2022-08-26T15:32:23.361Z,6.07
2022-08-26T15:34:51.908Z,6.60
2022-08-26T15:37:20.220Z,6.75
2022-08-26T15:39:48.793Z,6.30
2022-08-26T15:42:16.783Z,6.30
2022-08-26T15:44:46.413Z,6.68
2022-08-26T15:47:14.573Z,6.05
2022-08-26T15:49:42.606Z,6.15
2022-08-26T15:52:10.721Z,6.05
2022-08-26T15:54:38.772Z,6.22
2022-08-26T15:57:09.457Z,5.70
2022-08-26T15:59:39.502Z,5.95
2022-08-26T16:02:07.545Z,6.40
2022-08-26T16:04:35.551Z,6.25
2022-08-26T16:07:03.511Z,7.07
2022-08-26T16:09:31.852Z,6.30
2022-08-26T16:12:00.045Z,6.57
2022-08-26T16:14:28.155Z,6.93
2022-08-26T16:16:58.375Z,7.22
2022-08-26T16:19:26.422Z,8.38
2022-08-26T16:21:54.392Z,8.27
2022-08-26T16:24:27.182Z,8.15
2022-08-26T16:26:58.174Z,8.35
2022-08-26T16:29:26.060Z,8.70
2022-08-26T16:31:55.701Z,8.30
2022-08-26T16:34:23.914Z,8.75
2022-08-26T16:36:52.362Z,9.50
2022-08-26T16:39:20.310Z,9.63
2022-08-26T16:41:48.222Z,10.50
2022-08-26T16:44:16.187Z,9.85
2022-08-26T16:46:44.143Z,10.13
2022-08-26T16:49:12.215Z,9.35
2022-08-26T16:51:40.193Z,10.93
2022-08-26T16:54:09.727Z,9.38
2022-08-26T16:56:38.876Z,9.48
2022-08-26T16:59:09.265Z,9.60
2022-08-26T17:01:37.450Z,8.53
2022-08-26T17:04:08.986Z,9.63
2022-08-26T17:06:42.324Z,9.13
2022-08-26T17:09:10.340Z,9.07
2022-08-26T17:11:41.320Z,9.52
2022-08-26T17:14:09.275Z,9.38
2022-08-26T17:16:37.426Z,12.00
2022-08-26T17:19:07.348Z,12.25
2022-08-26T17:21:36.944Z,11.45
2022-08-26T17:24:07.047Z,11.65
2022-08-26T17:26:35.629Z,11.20
2022-08-26T17:29:03.582Z,11.63
2022-08-26T17:31:32.520Z,9.82
2022-08-26T17:34:00.688Z,9.65
2022-08-26T17:36:29.165Z,9.50
2022-08-26T17:38:58.799Z,9.20
2022-08-26T17:41:28.603Z,8.95
2022-08-26T17:43:57.224Z,8.73
2022-08-26T17:46:25.785Z,9.55
2022-08-26T17:48:54.042Z,11.00
2022-08-26T17:51:23.821Z,10.30
2022-08-26T17:53:53.372Z,9.73
2022-08-26T17:56:25.320Z,11.23
2022-08-26T17:59:04.120Z,9.82
2022-08-26T18:01:33.175Z,9.43
2022-08-26T18:04:01.318Z,10.25
2022-08-26T18:06:38.672Z,10.20
2022-08-26T18:09:09.743Z,9.80
2022-08-26T18:11:38.138Z,10.32
2022-08-26T18:14:06.049Z,10.38
2022-08-26T18:16:39.219Z,9.40
2022-08-26T18:19:07.713Z,9.82
2022-08-26T18:21:37.558Z,10.23
2022-08-26T18:24:08.275Z,10.27
2022-08-26T18:26:40.526Z,10.68
2022-08-26T18:29:09.215Z,11.00
2022-08-26T18:31:37.224Z,11.75
2022-08-26T18:34:05.439Z,10.90
2022-08-26T18:36:38.326Z,11.35
2022-08-26T18:39:07.987Z,11.00
2022-08-26T18:41:44.195Z,16.92
2022-08-26T18:44:14.096Z,11.32
2022-08-26T18:46:43.093Z,10.85
2022-08-26T18:49:13.635Z,19.70
2022-08-26T18:51:42.449Z,14.40
2022-08-26T18:54:11.090Z,13.13
2022-08-26T18:56:41.808Z,12.30
2022-08-26T18:59:16.814Z,12.90
2022-08-26T19:01:46.753Z,12.05
2022-08-26T19:04:19.324Z,12.73
2022-08-26T19:06:49.880Z,12.23
2022-08-26T19:09:19.416Z,13.30
2022-08-26T19:11:50.073Z,12.32
2022-08-26T19:14:22.105Z,15.35
2022-08-26T19:16:55.143Z,12.90
2022-08-26T19:19:27.057Z,12.38
2022-08-26T19:21:55.676Z,13.63
2022-08-26T19:24:25.971Z,12.15
2022-08-26T19:26:59.275Z,13.13
2022-08-26T19:31:57.622Z,12.80
2022-08-26T19:34:26.303Z,13.07
2022-08-26T19:36:55.221Z,14.27
2022-08-26T19:39:23.981Z,13.27
2022-08-26T19:41:52.934Z,13.65
2022-08-26T19:44:41.551Z,12.80
2022-08-26T19:47:14.225Z,13.40
2022-08-26T19:49:42.280Z,14.88
2022-08-26T19:52:12.207Z,13.32
2022-08-26T19:54:40.997Z,14.30
2022-08-26T19:57:09.083Z,14.85
2022-08-26T19:59:39.751Z,15.98
2022-08-26T20:02:11.003Z,16.60
2022-08-26T20:04:40.222Z,17.27
2022-08-26T20:07:08.925Z,16.92
2022-08-26T20:09:37.466Z,17.38
2022-08-26T20:12:07.151Z,15.25
2022-08-26T20:14:36.363Z,15.68
2022-08-26T20:17:05.451Z,16.30
2022-08-26T20:19:52.504Z,15.20
2022-08-26T20:22:21.376Z,15.07
2022-08-26T20:24:49.700Z,14.68
2022-08-26T20:27:17.717Z,12.65
2022-08-26T20:29:45.725Z,12.63
2022-08-26T20:32:13.794Z,11.93
2022-08-26T20:34:41.899Z,11.70
2022-08-26T20:37:09.904Z,11.60
2022-08-26T20:39:37.977Z,11.07
2022-08-26T20:42:20.019Z,10.38
2022-08-26T20:44:50.040Z,10.48
2022-08-26T20:47:23.108Z,9.63
2022-08-26T20:49:52.234Z,9.05
2022-08-26T20:52:21.247Z,9.98
2022-08-26T20:54:49.222Z,9.23
2022-08-26T20:57:17.205Z,9.50
2022-08-26T20:59:45.183Z,9.43
2022-08-26T21:02:13.178Z,9.90
2022-08-26T21:04:41.435Z,10.15
2022-08-26T21:07:09.380Z,10.18
2022-08-26T21:09:37.306Z,9.55
2022-08-26T21:12:06.528Z,8.13
2022-08-26T21:14:34.413Z,8.07
2022-08-26T21:17:02.373Z,8.55
2022-08-26T21:19:30.335Z,7.95
2022-08-26T21:21:58.319Z,8.77
2022-08-26T21:24:26.261Z,7.10
2022-08-26T21:26:54.214Z,6.88
2022-08-26T21:29:23.154Z,7.40
2022-08-26T21:31:51.313Z,6.82
2022-08-26T21:34:20.628Z,6.22
2022-08-26T21:36:49.498Z,6.47
2022-08-26T21:39:18.083Z,6.30
2022-08-26T21:41:47.067Z,6.18
2022-08-26T21:44:17.322Z,6.45
2022-08-26T21:46:46.719Z,6.13
2022-08-26T21:49:19.343Z,6.00
2022-08-26T21:51:49.583Z,6.50
2022-08-26T21:54:19.199Z,6.68
2022-08-26T21:56:48.485Z,6.35
2022-08-26T21:59:18.439Z,6.38
2022-08-26T22:01:50.671Z,6.18
2022-08-26T22:04:22.415Z,5.80
2022-08-26T22:06:54.045Z,5.80
2022-08-26T22:09:25.092Z,6.05
2022-08-26T22:11:54.394Z,6.35
2022-08-26T22:14:25.450Z,5.53
2022-08-26T22:16:58.070Z,5.53
2022-08-26T22:19:26.598Z,5.78
2022-08-26T22:21:56.388Z,5.65
2022-08-26T22:24:26.780Z,5.30
2022-08-26T22:26:55.653Z,6.00
2022-08-26T22:29:24.052Z,6.07
2022-08-26T22:31:52.964Z,6.25
2022-08-26T22:34:22.141Z,5.75
2022-08-26T22:36:50.897Z,5.90
2022-08-26T22:39:21.921Z,5.18
2022-08-26T22:41:50.516Z,5.53
2022-08-26T22:44:19.789Z,5.70
2022-08-26T22:46:49.350Z,5.60
2022-08-26T22:49:17.894Z,5.60
2022-08-26T22:51:46.842Z,5.03
2022-08-26T22:54:15.771Z,4.45
2022-08-26T22:56:45.196Z,5.50
2022-08-26T22:59:14.106Z,4.72
2022-08-26T23:01:44.026Z,4.70
2022-08-26T23:04:12.545Z,4.32
2022-08-26T23:06:47.444Z,4.00
2022-08-26T23:09:19.656Z,4.30
2022-08-26T23:11:48.826Z,4.82
2022-08-26T23:14:19.038Z,3.70
2022-08-26T23:16:48.511Z,4.50
2022-08-26T23:19:19.095Z,4.50
2022-08-26T23:21:47.934Z,4.20
2022-08-26T23:24:16.233Z,4.70
2022-08-26T23:26:45.377Z,4.97
2022-08-26T23:29:16.674Z,5.38
2022-08-26T23:34:32.437Z,5.70
2022-08-26T23:37:01.092Z,5.88
2022-08-26T23:39:29.492Z,5.95
2022-08-26T23:41:59.155Z,5.88
2022-08-26T23:44:27.706Z,5.63
2022-08-26T23:46:56.384Z,5.85
2022-08-26T23:49:25.092Z,5.82
2022-08-26T23:52:11.989Z,5.32
2022-08-26T23:54:40.822Z,6.15
2022-08-26T23:57:09.076Z,5.88
2022-08-26T23:59:39.035Z,5.90
